Ora Direzione Vento Velocita' Vento Media Vento Raffica Max. Temperatura Wind Chill Pioggia Pressione
07:10:24.0225 °(SW)0.0 Kts1.0 Kts6.6 Kts18.4 °C18.4 °C0.0 mm1010.4 Hpa
06:48:55.0203 °(SSW)0.0 Kts1.6 Kts6.6 Kts18.4 °C18.4 °C0.0 mm1010.5 Hpa
06:29:23.0225 °(SW)4.1 Kts2.7 Kts6.6 Kts18.5 °C18.5 °C0.0 mm1010.3 Hpa
06:09:55.0225 °(SW)4.5 Kts3.1 Kts6.6 Kts18.5 °C18.5 °C0.0 mm1010.5 Hpa
05:49:58.0203 °(SSW)0.0 Kts1.8 Kts5.4 Kts18.6 °C18.6 °C0.0 mm1010.6 Hpa
05:30:22.0248 °(WSW)4.5 Kts3.3 Kts5.4 Kts18.8 °C18.8 °C0.0 mm1010.6 Hpa
05:08:48.0248 °(WSW)0.0 Kts0.2 Kts5.4 Kts18.8 °C18.8 °C0.0 mm1010.8 Hpa
04:49:26.0270 °(W)0.0 Kts0.2 Kts5.4 Kts18.9 °C18.9 °C0.0 mm1010.9 Hpa
04:29:41.0135 °(SE)0.0 Kts0.2 Kts5.4 Kts19.0 °C19.0 °C0.0 mm1010.8 Hpa
04:10:17.090 °(E)0.0 Kts0.0 Kts5.4 Kts19.1 °C19.1 °C0.0 mm1010.8 Hpa
03:50:03.090 °(E)0.0 Kts0.2 Kts5.4 Kts19.2 °C19.2 °C0.0 mm1011.0 Hpa
03:30:21.090 °(E)0.0 Kts0.2 Kts5.4 Kts19.3 °C19.3 °C0.0 mm1011.1 Hpa
03:08:27.090 °(E)0.0 Kts0.2 Kts5.4 Kts19.4 °C19.4 °C0.0 mm1011.3 Hpa
02:50:12.0203 °(SSW)0.0 Kts0.2 Kts5.4 Kts19.5 °C19.5 °C0.0 mm1011.5 Hpa
02:29:40.0203 °(SSW)0.0 Kts0.2 Kts5.4 Kts19.6 °C19.6 °C0.0 mm1011.5 Hpa
02:09:43.0203 °(SSW)0.0 Kts0.2 Kts5.4 Kts19.8 °C19.8 °C0.0 mm1011.5 Hpa
01:49:24.0203 °(SSW)0.0 Kts0.2 Kts5.4 Kts19.9 °C19.9 °C0.0 mm1011.6 Hpa
01:29:39.0158 °(SSE)2.5 Kts1.2 Kts5.4 Kts19.9 °C19.9 °C0.0 mm1011.7 Hpa
01:10:08.0180 °(S)0.0 Kts1.0 Kts5.4 Kts19.9 °C19.9 °C0.0 mm1011.7 Hpa
00:48:27.0180 °(S)0.0 Kts0.2 Kts0.0 Kts20.1 °C20.1 °C0.0 mm1011.8 Hpa